LPMA Informações do Aeroporto

Informações da Pista
Pista 05 Comprimento 9110 ft Largura 148 ft
Elevação 147 ft Limite 480 ft Heading 45
Pista 23 Comprimento 9110 ft Largura 148 ft
Elevação 192 ft Limite 490 ft Heading 225
Frequências do Aeroporto
Tipo APP Nome APP Frequência 119.2 MHZ
Tipo TWR Nome TWR Frequência 118.35 MHZ
Navaids do Aeroporto
Tipo VOR-DME Nome Madeira Frequência 112200 KHZ
Tipo NDB Nome Madeira Frequência 318 KHZ
Informações meteorológicas do aeroporto e NOTAM
ADDS - METARS form results

(1225 UTC 18 January 2019)
Data provider http://aviationweather.gov/metar/data/
 
METAR text: LPMA 181200Z 36010KT 320V050 9999 SCT015 16/10 Q1027
Conditions at: LPMA (FUNCHAL/MADEIRA , PT) observed 1200 UTC 18 January 2019
Temperature: 16.0°C (61°F)
Dewpoint: 10.0°C (50°F) [RH = 68%]
Pressure (altimeter): 30.32 inches Hg (1027.0 mb)
Winds: from the N (360 degrees) at 12 MPH (10 knots; 5.1 m/s)
Visibility: 6 or more miles (10+ km)
Ceiling: at least 12,000 feet AGL
Clouds: scattered clouds at 1500 feet AGL
Weather: no significant weather observed at this time

METAR text: LPMA 181130Z 36008KT 320V040 9999 BKN015 16/10 Q1027
Conditions at: LPMA (FUNCHAL/MADEIRA , PT) observed 1130 UTC 18 January 2019
Temperature: 16.0°C (61°F)
Dewpoint: 10.0°C (50°F) [RH = 68%]
Pressure (altimeter): 30.32 inches Hg (1027.0 mb)
Winds: from the N (360 degrees) at 9 MPH (8 knots; 4.1 m/s)
Visibility: 6 or more miles (10+ km)
Ceiling: 1500 feet AGL
Clouds: broken clouds at 1500 feet AGL
Weather: no significant weather observed at this time

Forecast for: LPMA (FUNCHAL/MADEIRA , PT)
Text: TAF LPMA 181100Z 1812/1912 01010KT 9999 BKN015
Forecast period: 1200 UTC 18 January 2019 to 0900 UTC 19 January 2019
Forecast type: FROM: standard forecast or significant change
Winds: from the N (10 degrees) at 12 MPH (10 knots; 5.1 m/s)
Visibility: 6 or more miles 10+ km)
Ceiling: 1500 feet AGL
Clouds: broken clouds at 1500 feet AGL
Weather: no significant weather forecast for this period
Text: TEMPO 1812/1912 SCT015
Forecast period: 1200 UTC 18 January 2019 to 1200 UTC 19 January 2019
Forecast type: TEMPORARY: The following changes expected for less than half the time period
Visibility: missing
Ceiling: at least 12,000 feet AGL
Clouds: scattered clouds at 1500 feet AGL
Weather: no significant weather forecast for this period
Text: BECMG 1909/1912 VRB05KT
Forecast period: 0900 to 1200 UTC 19 January 2019
Forecast type: BECOMING: Conditions expected to become as follows by 1200 UTC 19 January 2019
Winds: variable direction winds at 6 MPH (5 knots; 2.6 m/s)
Visibility: 6 or more miles 10+ km)
Ceiling: 1500 feet AGL
Clouds: broken clouds at 1500 feet AGL
Weather: no significant weather forecast for this period